Time;durP1;ratioP1;P1;durP2;ratioP2;P2;SDS_P1;SDS_P2;PMS_P1;PMS_P2;Temp;Humidity;BMP_temperature;BMP_pressure;BME280_temperature;BME280_humidity;BME280_pressure;Samples;Min_cycle;Max_cycle;Signal;HPM_P1;HPM_P2
2023/10/20 00:00:16;;;;;;;324.33;307.67;;;7.70;99.90;;;;;;4882080;29;20069;-73
2023/10/20 00:02:43;;;;;;;407.25;382.40;;;7.70;99.90;;;;;;4883454;29;20048;-73
2023/10/20 00:05:09;;;;;;;324.23;306.95;;;7.60;99.90;;;;;;4885583;29;20047;-73
2023/10/20 00:07:37;;;;;;;277.57;262.67;;;7.60;99.90;;;;;;4895752;29;20587;-73
2023/10/20 00:10:04;;;;;;;358.67;337.23;;;7.60;99.90;;;;;;4896484;29;20052;-73
2023/10/20 00:12:30;;;;;;;457.92;430.73;;;7.60;99.90;;;;;;4892111;29;20093;-73
2023/10/20 00:14:56;;;;;;;473.73;445.75;;;7.60;99.90;;;;;;4876882;29;20479;-72
2023/10/20 00:17:22;;;;;;;369.85;348.52;;;7.60;99.90;;;;;;4867639;29;20096;-72
2023/10/20 00:19:48;;;;;;;370.73;351.37;;;7.60;99.90;;;;;;4890517;29;20044;-73
2023/10/20 00:22:15;;;;;;;426.37;402.77;;;7.60;99.90;;;;;;4882431;29;20049;-73
2023/10/20 00:24:41;;;;;;;281.27;265.70;;;7.60;99.90;;;;;;4906595;29;20291;-73
2023/10/20 00:27:08;;;;;;;303.30;287.63;;;7.60;99.90;;;;;;4904920;29;20051;-73
2023/10/20 00:29:34;;;;;;;387.10;365.65;;;7.60;99.90;;;;;;4895671;29;20156;-73
2023/10/20 00:32:00;;;;;;;426.63;401.90;;;7.60;99.90;;;;;;4883829;29;20123;-73
2023/10/20 00:34:26;;;;;;;308.10;292.60;;;7.60;99.90;;;;;;4879294;29;20126;-73
2023/10/20 00:36:52;;;;;;;389.63;368.43;;;7.60;99.90;;;;;;4888343;29;20145;-73
2023/10/20 00:39:17;;;;;;;306.00;290.30;;;7.60;99.90;;;;;;4889996;29;20116;-73
2023/10/20 00:41:43;;;;;;;357.17;337.93;;;7.60;99.90;;;;;;4904002;29;20052;-73
2023/10/20 00:44:09;;;;;;;506.23;475.88;;;7.60;99.90;;;;;;4892842;29;20041;-73
2023/10/20 00:46:35;;;;;;;292.90;278.07;;;7.60;99.90;;;;;;4878845;29;20051;-73
2023/10/20 00:49:02;;;;;;;344.93;326.87;;;7.60;99.90;;;;;;4879968;29;20456;-73
2023/10/20 00:51:28;;;;;;;325.20;307.33;;;7.60;99.90;;;;;;4879536;29;20036;-73
2023/10/20 00:53:58;;;;;;;358.42;339.45;;;7.60;99.90;;;;;;4892365;29;20056;-73
2023/10/20 00:56:24;;;;;;;373.70;354.50;;;7.60;99.90;;;;;;4880244;29;20045;-73
2023/10/20 00:58:51;;;;;;;305.88;290.15;;;7.60;99.90;;;;;;4886805;29;20539;-73
2023/10/20 01:01:17;;;;;;;401.40;375.20;;;7.50;99.90;;;;;;4894115;29;20052;-73
2023/10/20 01:03:43;;;;;;;328.10;310.67;;;7.60;99.90;;;;;;4885104;29;20063;-73
2023/10/20 01:06:09;;;;;;;340.07;321.83;;;7.60;99.90;;;;;;4902298;29;20378;-73
2023/10/20 01:08:34;;;;;;;376.37;355.80;;;7.60;99.90;;;;;;4882360;29;20038;-73
2023/10/20 01:11:00;;;;;;;389.73;368.37;;;7.60;99.90;;;;;;4894932;29;20092;-73
2023/10/20 01:13:25;;;;;;;318.17;302.00;;;7.60;99.90;;;;;;4879099;29;20060;-73
2023/10/20 01:15:51;;;;;;;331.97;314.60;;;7.50;99.90;;;;;;4897946;29;20131;-73
2023/10/20 01:18:17;;;;;;;306.40;290.43;;;7.50;99.90;;;;;;4894303;29;20036;-73
2023/10/20 01:20:44;;;;;;;290.07;274.47;;;7.60;99.90;;;;;;4880547;29;20595;-73
2023/10/20 01:23:10;;;;;;;345.25;327.02;;;7.60;99.90;;;;;;4879948;29;20055;-73
2023/10/20 01:25:36;;;;;;;346.40;327.73;;;7.60;99.90;;;;;;4894587;29;20048;-73
2023/10/20 01:28:03;;;;;;;399.80;376.73;;;7.60;99.90;;;;;;4888584;29;20068;-73
2023/10/20 01:30:29;;;;;;;348.10;328.95;;;7.60;99.90;;;;;;4881523;29;20409;-73
2023/10/20 01:32:55;;;;;;;310.53;294.10;;;7.50;99.90;;;;;;4878471;29;20110;-73
2023/10/20 01:35:21;;;;;;;291.67;275.63;;;7.60;99.90;;;;;;4878625;29;20285;-73
2023/10/20 01:37:47;;;;;;;309.80;292.92;;;7.50;99.90;;;;;;4890278;29;20043;-73
2023/10/20 01:40:13;;;;;;;476.42;445.33;;;7.50;99.90;;;;;;4895972;29;20033;-73
2023/10/20 01:42:39;;;;;;;350.70;330.20;;;7.50;99.90;;;;;;4882346;29;20081;-73
2023/10/20 01:45:06;;;;;;;306.15;288.70;;;7.50;99.90;;;;;;4891867;29;20049;-73
2023/10/20 01:47:32;;;;;;;320.20;302.95;;;7.50;99.90;;;;;;4884647;29;20490;-73
2023/10/20 01:50:01;;;;;;;318.02;300.80;;;7.50;99.90;;;;;;4887919;29;20049;-73
2023/10/20 01:52:26;;;;;;;343.33;324.33;;;7.50;99.90;;;;;;4878365;29;20045;-73
2023/10/20 01:54:52;;;;;;;416.80;393.37;;;7.50;99.90;;;;;;4894211;29;20128;-73
2023/10/20 01:57:17;;;;;;;382.33;357.47;;;7.50;99.90;;;;;;4891811;29;20041;-73
2023/10/20 01:59:43;;;;;;;339.13;318.67;;;7.50;99.90;;;;;;4892841;29;20485;-73
2023/10/20 02:02:09;;;;;;;352.43;330.60;;;7.50;99.90;;;;;;4894325;29;20434;-73
2023/10/20 02:04:34;;;;;;;335.43;316.57;;;7.50;99.90;;;;;;4894717;29;20131;-73
2023/10/20 02:07:00;;;;;;;360.27;338.93;;;7.50;99.90;;;;;;4896337;29;20044;-76
2023/10/20 02:09:26;;;;;;;311.30;291.47;;;7.50;99.90;;;;;;4879212;29;20056;-76
2023/10/20 02:11:56;;;;;;;334.30;314.63;;;7.50;99.90;;;;;;4894415;29;20041;-76
2023/10/20 02:14:25;;;;;;;319.15;301.08;;;7.50;99.90;;;;;;4895693;29;20045;-77
2023/10/20 02:16:51;;;;;;;330.50;311.02;;;7.50;99.90;;;;;;4903079;29;20454;-76
2023/10/20 02:19:17;;;;;;;465.48;436.17;;;7.50;99.90;;;;;;4895947;29;20037;-76
2023/10/20 02:21:43;;;;;;;544.23;505.70;;;7.50;99.90;;;;;;4900958;29;20233;-77
2023/10/20 02:24:09;;;;;;;427.97;402.63;;;7.50;99.90;;;;;;4910182;29;20056;-77
2023/10/20 02:26:35;;;;;;;291.07;273.83;;;7.50;99.90;;;;;;4878715;29;20044;-77
2023/10/20 02:29:01;;;;;;;367.20;346.00;;;7.50;99.90;;;;;;4912469;29;20053;-77
2023/10/20 02:31:27;;;;;;;358.67;337.23;;;7.50;99.90;;;;;;4895405;29;20048;-77
2023/10/20 02:33:52;;;;;;;406.40;380.93;;;7.50;99.90;;;;;;4896643;29;20041;-77
2023/10/20 02:36:22;;;;;;;311.33;293.20;;;7.50;99.90;;;;;;4896517;29;20682;-77
2023/10/20 02:38:53;;;;;;;355.05;334.42;;;7.40;99.90;;;;;;4880184;29;20191;-77
2023/10/20 02:41:20;;;;;;;340.20;320.73;;;7.50;99.90;;;;;;4898209;29;20068;-76
2023/10/20 02:43:45;;;;;;;380.90;358.67;;;7.50;99.90;;;;;;4889628;29;20049;-77
2023/10/20 02:46:12;;;;;;;588.30;528.37;;;7.50;99.90;;;;;;4889032;29;20116;-77
2023/10/20 02:48:38;;;;;;;418.90;393.42;;;7.50;99.90;;;;;;4909811;29;20446;-77
2023/10/20 02:51:12;;;;;;;545.45;506.83;;;7.50;99.90;;;;;;4893637;29;20514;-77
2023/10/20 02:53:40;;;;;;;421.10;395.92;;;7.50;99.90;;;;;;4887307;29;20524;-77
2023/10/20 02:56:19;;;;;;;316.70;296.92;;;7.50;99.90;;;;;;4909593;29;20650;-77
2023/10/20 02:58:46;;;;;;;468.63;439.17;;;7.50;99.90;;;;;;4876315;29;20051;-77
2023/10/20 03:01:15;;;;;;;368.08;345.42;;;7.50;99.90;;;;;;4893006;29;20036;-76
2023/10/20 03:03:41;;;;;;;335.08;315.63;;;7.50;99.90;;;;;;4893587;29;20577;-77
2023/10/20 03:06:07;;;;;;;419.55;393.70;;;7.50;99.90;;;;;;4877279;29;20037;-77
2023/10/20 03:08:36;;;;;;;461.07;430.63;;;7.50;99.90;;;;;;4893854;29;20087;-77
2023/10/20 03:11:04;;;;;;;507.23;467.88;;;7.40;99.90;;;;;;4891679;29;20470;-77
2023/10/20 03:13:30;;;;;;;454.30;426.20;;;7.50;99.90;;;;;;4876123;29;20942;-77
2023/10/20 03:15:56;;;;;;;538.13;501.27;;;7.50;99.90;;;;;;4892761;29;20421;-76
2023/10/20 03:18:23;;;;;;;438.77;413.00;;;7.50;99.90;;;;;;4900705;29;20037;-75
2023/10/20 03:20:50;;;;;;;398.85;374.60;;;7.50;99.90;;;;;;4894233;29;20075;-75
2023/10/20 03:23:21;;;;;;;491.52;460.10;;;7.50;99.90;;;;;;4882880;29;20476;-75
2023/10/20 03:25:46;;;;;;;350.80;330.95;;;7.50;99.90;;;;;;4894795;29;20048;-75
2023/10/20 03:28:12;;;;;;;426.00;400.17;;;7.50;99.90;;;;;;4878015;29;20040;-75
2023/10/20 03:30:42;;;;;;;498.87;463.43;;;7.50;99.90;;;;;;4879820;29;20139;-75
2023/10/20 03:33:10;;;;;;;540.08;496.30;;;7.50;99.90;;;;;;4879370;29;20400;-75
2023/10/20 03:35:36;;;;;;;510.90;476.65;;;7.50;99.90;;;;;;4895498;29;20188;-75
2023/10/20 03:38:04;;;;;;;446.60;419.00;;;7.50;99.90;;;;;;4879240;29;20387;-75
2023/10/20 03:40:37;;;;;;;472.17;443.98;;;7.50;99.90;;;;;;4895488;29;20103;-75
2023/10/20 03:43:10;;;;;;;556.22;518.72;;;7.40;99.90;;;;;;4879992;29;20055;-75
2023/10/20 03:45:49;;;;;;;348.23;328.08;;;7.50;99.90;;;;;;4889242;29;20048;-74
2023/10/20 03:48:15;;;;;;;494.98;463.67;;;7.50;99.90;;;;;;4896485;29;20047;-75
2023/10/20 03:50:46;;;;;;;446.97;419.53;;;7.50;99.90;;;;;;4890478;29;20052;-75
2023/10/20 03:53:18;;;;;;;420.10;395.40;;;7.50;99.90;;;;;;4897179;29;20552;-75
2023/10/20 03:55:44;;;;;;;509.70;472.88;;;7.50;99.90;;;;;;4901621;29;20068;-75
2023/10/20 03:58:11;;;;;;;402.15;379.67;;;7.50;99.90;;;;;;4893144;29;20083;-74
2023/10/20 04:00:41;;;;;;;431.88;407.52;;;7.50;99.90;;;;;;4879463;29;20041;-75
2023/10/20 04:03:08;;;;;;;470.63;443.00;;;7.50;99.90;;;;;;4878496;29;20127;-75
2023/10/20 04:05:33;;;;;;;400.23;377.58;;;7.50;99.90;;;;;;4897965;29;20048;-74
2023/10/20 04:07:59;;;;;;;350.40;330.77;;;7.50;99.90;;;;;;4879958;29;20040;-74
2023/10/20 04:10:25;;;;;;;410.20;387.85;;;7.50;99.90;;;;;;4878006;29;20048;-74
2023/10/20 04:12:52;;;;;;;367.93;346.97;;;7.50;99.90;;;;;;4882209;29;20049;-74
2023/10/20 04:15:25;;;;;;;392.25;370.13;;;7.50;99.90;;;;;;4886771;29;20100;-74
2023/10/20 04:17:51;;;;;;;537.95;501.13;;;7.50;99.90;;;;;;4896426;29;20435;-74
2023/10/20 04:20:21;;;;;;;460.42;428.17;;;7.50;99.90;;;;;;4880143;29;20044;-74
2023/10/20 04:22:50;;;;;;;410.83;387.83;;;7.40;99.90;;;;;;4879408;29;20045;-74
2023/10/20 04:25:21;;;;;;;485.05;455.95;;;7.40;99.90;;;;;;4885125;29;20511;-75
2023/10/20 04:28:12;;;;;;;512.50;481.83;;;7.40;99.90;;;;;;4894745;29;20048;-74
2023/10/20 04:54:39;;;;;;;423.20;398.37;;;7.20;99.90;;;;;;4891363;29;20131;-75
2023/10/20 04:59:44;;;;;;;425.48;401.52;;;7.20;99.90;;;;;;4903878;29;20079;-75
2023/10/20 05:02:24;;;;;;;413.05;389.38;;;7.20;99.90;;;;;;4889893;29;20045;-74
2023/10/20 05:04:52;;;;;;;318.83;302.25;;;7.20;99.90;;;;;;4872233;29;20092;-75
2023/10/20 05:07:18;;;;;;;592.53;547.75;;;7.30;99.90;;;;;;4868554;29;20143;-75
2023/10/20 05:09:49;;;;;;;366.38;346.83;;;7.20;99.90;;;;;;4880508;29;20048;-75
2023/10/20 05:12:15;;;;;;;427.58;403.67;;;7.20;99.90;;;;;;4889928;29;20048;-75
2023/10/20 05:14:41;;;;;;;335.37;318.33;;;7.20;99.90;;;;;;4889389;29;20044;-75
2023/10/20 05:17:10;;;;;;;499.83;470.07;;;7.20;99.90;;;;;;4883900;29;20139;-75
2023/10/20 05:19:36;;;;;;;644.13;579.33;;;7.20;99.90;;;;;;4888695;29;20541;-75
2023/10/20 05:22:01;;;;;;;453.10;428.10;;;7.30;99.90;;;;;;4894773;29;20041;-75
2023/10/20 05:24:27;;;;;;;498.97;466.87;;;7.20;99.90;;;;;;4900261;29;20051;-75
2023/10/20 05:26:53;;;;;;;412.40;386.83;;;7.20;99.90;;;;;;4878349;29;20052;-77
2023/10/20 05:29:19;;;;;;;356.85;336.75;;;7.20;99.90;;;;;;4878424;29;20107;-75
2023/10/20 05:31:45;;;;;;;507.33;475.43;;;7.20;99.90;;;;;;4883150;29;20469;-75
2023/10/20 05:34:12;;;;;;;423.57;400.77;;;7.20;99.90;;;;;;4896476;29;20040;-75
2023/10/20 05:36:37;;;;;;;466.90;439.05;;;7.20;99.90;;;;;;4890534;29;20056;-75
2023/10/20 05:39:03;;;;;;;552.77;504.07;;;7.20;99.90;;;;;;4894238;29;20041;-75
2023/10/20 05:41:29;;;;;;;348.23;330.50;;;7.20;99.90;;;;;;4887485;29;20060;-75
2023/10/20 05:43:55;;;;;;;288.73;274.50;;;7.20;99.90;;;;;;4867203;29;20085;-75
2023/10/20 05:46:22;;;;;;;402.35;377.23;;;7.20;99.90;;;;;;4881455;29;20438;-75
2023/10/20 05:48:48;;;;;;;486.35;454.90;;;7.20;99.90;;;;;;4907971;29;20045;-75
2023/10/20 05:51:14;;;;;;;365.10;346.53;;;7.20;99.90;;;;;;4903918;29;20100;-76
2023/10/20 05:53:40;;;;;;;352.03;334.00;;;7.20;99.90;;;;;;4891289;29;20044;-74
2023/10/20 05:56:06;;;;;;;647.22;590.28;;;7.20;99.90;;;;;;4906817;29;20464;-75
2023/10/20 05:58:35;;;;;;;542.97;502.93;;;7.20;99.90;;;;;;4897669;29;20040;-75
2023/10/20 06:01:09;;;;;;;415.90;394.33;;;7.20;99.90;;;;;;4889972;29;20041;-75
2023/10/20 06:03:35;;;;;;;467.08;432.55;;;7.20;99.90;;;;;;4887545;29;20552;-75
2023/10/20 06:06:03;;;;;;;266.47;253.73;;;7.20;99.90;;;;;;4879545;29;20055;-75
2023/10/20 06:08:29;;;;;;;281.40;267.33;;;7.20;99.90;;;;;;4907267;29;20400;-74
2023/10/20 06:11:02;;;;;;;393.67;372.77;;;7.20;99.90;;;;;;4898861;29;20040;-76
2023/10/20 06:13:30;;;;;;;392.77;368.85;;;7.10;99.90;;;;;;4902651;29;20040;-76
2023/10/20 06:15:57;;;;;;;643.00;585.22;;;7.20;99.90;;;;;;4899169;29;20041;-75
2023/10/20 06:18:22;;;;;;;477.63;441.50;;;7.20;99.90;;;;;;4900803;29;20041;-75
2023/10/20 06:20:48;;;;;;;366.67;347.00;;;7.20;99.90;;;;;;4898110;29;20037;-74
2023/10/20 06:23:14;;;;;;;265.47;252.90;;;7.20;99.90;;;;;;4882337;29;20188;-74
2023/10/20 06:25:42;;;;;;;431.83;408.13;;;7.10;99.90;;;;;;4879830;29;20717;-74
2023/10/20 06:28:07;;;;;;;403.73;381.42;;;7.20;99.90;;;;;;4888858;29;20450;-74
2023/10/20 06:30:39;;;;;;;533.03;492.77;;;7.20;99.90;;;;;;4885286;29;20040;-74
2023/10/20 06:35:44;;;;;;;281.63;266.83;;;7.20;99.90;;;;;;4892407;29;20259;-74
2023/10/20 06:40:35;;;;;;;498.73;464.87;;;7.20;99.90;;;;;;4897586;29;20052;-74
2023/10/20 06:43:02;;;;;;;625.27;573.87;;;7.20;99.90;;;;;;4891682;29;20533;-74
2023/10/20 06:45:27;;;;;;;325.00;308.17;;;7.20;99.90;;;;;;4884841;29;20721;-74
2023/10/20 06:47:53;;;;;;;355.87;335.10;;;7.20;99.90;;;;;;4877845;29;20087;-75
2023/10/20 06:50:20;;;;;;;384.08;361.02;;;7.20;99.90;;;;;;4886158;29;20052;-75
2023/10/20 06:52:46;;;;;;;231.00;220.07;;;7.20;99.90;;;;;;4879140;29;20079;-75
2023/10/20 06:55:13;;;;;;;430.27;403.27;;;7.20;99.90;;;;;;4880925;29;20095;-74
2023/10/20 06:57:38;;;;;;;258.85;245.77;;;7.20;99.90;;;;;;4884656;29;20051;-74
2023/10/20 07:00:16;;;;;;;364.80;337.23;;;7.20;99.90;;;;;;4896361;29;20040;-74
2023/10/20 07:02:42;;;;;;;226.50;216.32;;;7.20;99.90;;;;;;4896380;29;20055;-75
2023/10/20 07:05:08;;;;;;;391.42;368.05;;;7.20;99.90;;;;;;4884997;29;20037;-75
2023/10/20 07:07:33;;;;;;;505.70;461.83;;;7.30;99.90;;;;;;4880656;29;20216;-75
2023/10/20 07:10:00;;;;;;;342.87;319.90;;;7.30;99.90;;;;;;4881257;29;20468;-75
2023/10/20 07:12:27;;;;;;;320.75;300.98;;;7.30;99.90;;;;;;4883705;29;20058;-75
2023/10/20 07:14:52;;;;;;;240.90;229.68;;;7.30;99.90;;;;;;4881337;29;20039;-74
2023/10/20 07:17:18;;;;;;;258.90;246.83;;;7.30;99.90;;;;;;4872857;29;20107;-75
2023/10/20 07:19:44;;;;;;;379.03;352.33;;;7.30;99.90;;;;;;4872849;29;20120;-75
2023/10/20 07:22:10;;;;;;;274.33;261.90;;;7.30;99.90;;;;;;4881145;29;20474;-75
2023/10/20 07:24:35;;;;;;;608.83;559.10;;;7.30;99.90;;;;;;4892288;29;20052;-75
2023/10/20 07:27:02;;;;;;;359.90;341.80;;;7.30;99.90;;;;;;4877983;29;20668;-76
2023/10/20 07:29:28;;;;;;;292.60;279.00;;;7.30;99.90;;;;;;4882734;29;20043;-75
2023/10/20 07:31:54;;;;;;;270.58;258.48;;;7.30;99.90;;;;;;4892347;29;20518;-75
2023/10/20 07:34:21;;;;;;;338.52;320.58;;;7.20;99.90;;;;;;4880579;29;20066;-74
2023/10/20 07:36:46;;;;;;;240.38;229.40;;;7.30;99.90;;;;;;4896968;29;20036;-74
2023/10/20 07:39:16;;;;;;;348.83;332.70;;;7.20;99.90;;;;;;4877510;29;20040;-74
2023/10/20 07:41:45;;;;;;;407.98;384.15;;;7.20;99.90;;;;;;4886405;29;20055;-74
2023/10/20 07:44:12;;;;;;;275.83;262.83;;;7.20;99.90;;;;;;4882760;29;20041;-75
2023/10/20 07:46:42;;;;;;;354.50;336.65;;;7.20;99.90;;;;;;4875120;29;20076;-74
2023/10/20 07:49:11;;;;;;;466.10;441.13;;;7.20;99.90;;;;;;4867770;29;20048;-74
2023/10/20 07:51:38;;;;;;;361.55;344.42;;;7.20;99.90;;;;;;4877233;29;20457;-74
2023/10/20 07:54:04;;;;;;;376.70;359.10;;;7.20;99.90;;;;;;4891754;29;20517;-74
2023/10/20 07:56:30;;;;;;;424.97;403.97;;;7.20;99.90;;;;;;4894526;29;20155;-75
2023/10/20 07:58:56;;;;;;;534.38;502.58;;;7.20;99.90;;;;;;4893645;29;20175;-74
2023/10/20 08:01:22;;;;;;;300.90;287.27;;;7.20;99.90;;;;;;4874938;29;20040;-74
2023/10/20 08:03:48;;;;;;;294.97;281.43;;;7.20;99.90;;;;;;4880538;29;20052;-74
2023/10/20 08:06:14;;;;;;;555.87;520.70;;;7.10;99.90;;;;;;4888122;29;20048;-74
2023/10/20 08:08:40;;;;;;;312.67;298.83;;;7.10;99.90;;;;;;4871969;29;20041;-75
2023/10/20 08:11:09;;;;;;;306.63;292.73;;;7.10;99.90;;;;;;4876561;29;20298;-75
2023/10/20 08:13:34;;;;;;;338.42;317.20;;;7.10;99.90;;;;;;4889360;29;20068;-75
2023/10/20 08:16:06;;;;;;;266.80;254.87;;;7.10;99.90;;;;;;4874147;29;20719;-74
2023/10/20 08:18:34;;;;;;;271.48;259.20;;;7.10;99.90;;;;;;4887753;29;20055;-74
2023/10/20 08:21:07;;;;;;;453.85;429.90;;;7.10;99.90;;;;;;4879338;29;20602;-75
2023/10/20 08:23:34;;;;;;;478.95;450.92;;;7.00;99.90;;;;;;4905713;29;20044;-74
2023/10/20 08:26:00;;;;;;;349.23;331.58;;;7.00;99.90;;;;;;4888128;29;20080;-75
2023/10/20 08:28:26;;;;;;;619.40;560.80;;;7.00;99.90;;;;;;4880422;29;20143;-75
2023/10/20 08:31:07;;;;;;;331.27;312.33;;;7.00;99.90;;;;;;4875073;29;20048;-75
2023/10/20 08:33:33;;;;;;;406.33;382.27;;;7.00;99.90;;;;;;4894813;29;20119;-75
2023/10/20 08:36:11;;;;;;;439.52;408.75;;;6.90;99.90;;;;;;4888554;29;20172;-75
2023/10/20 08:38:38;;;;;;;327.50;312.40;;;7.00;99.90;;;;;;4888323;29;20055;-75
2023/10/20 08:41:09;;;;;;;264.77;252.95;;;7.00;99.90;;;;;;4891818;29;20068;-75
2023/10/20 08:43:37;;;;;;;276.65;264.63;;;7.00;99.90;;;;;;4886551;29;20900;-74
2023/10/20 08:46:04;;;;;;;398.27;372.35;;;6.90;99.90;;;;;;4883845;29;20051;-75
2023/10/20 08:48:31;;;;;;;488.55;458.05;;;7.00;99.90;;;;;;4884501;29;20382;-75
2023/10/20 08:50:59;;;;;;;290.52;277.52;;;7.00;99.90;;;;;;4887751;29;20115;-75
2023/10/20 08:53:28;;;;;;;345.85;328.80;;;7.00;99.90;;;;;;4885338;29;20048;-75
2023/10/20 08:55:53;;;;;;;340.52;323.33;;;6.90;99.90;;;;;;4901192;29;20405;-75
2023/10/20 08:58:20;;;;;;;342.00;322.63;;;6.90;99.90;;;;;;4890278;29;20033;-75
2023/10/20 09:00:46;;;;;;;465.23;435.30;;;6.90;99.90;;;;;;4885647;29;20036;-75
2023/10/20 09:03:12;;;;;;;302.20;289.33;;;6.90;99.90;;;;;;4891859;29;20069;-75
2023/10/20 09:05:37;;;;;;;244.57;232.37;;;6.90;99.90;;;;;;4881129;29;20037;-75
2023/10/20 09:08:03;;;;;;;395.37;369.10;;;6.90;99.90;;;;;;4882375;29;20077;-75
2023/10/20 09:10:29;;;;;;;223.53;213.97;;;6.90;99.90;;;;;;4884779;29;20183;-75
2023/10/20 09:12:55;;;;;;;534.10;486.10;;;6.90;99.90;;;;;;4864694;29;20172;-75
2023/10/20 09:15:21;;;;;;;302.73;288.67;;;6.90;99.90;;;;;;4886683;29;20052;-75
2023/10/20 09:17:54;;;;;;;322.80;307.33;;;6.80;99.90;;;;;;4879577;29;20051;-74
2023/10/20 09:20:20;;;;;;;384.85;366.23;;;6.80;99.90;;;;;;4889048;29;20048;-74
2023/10/20 09:22:45;;;;;;;299.77;284.53;;;6.90;99.90;;;;;;4877168;29;20060;-75
2023/10/20 09:25:11;;;;;;;281.03;269.13;;;6.80;99.90;;;;;;4888796;29;20131;-74
2023/10/20 09:27:41;;;;;;;318.27;300.80;;;6.80;99.90;;;;;;4875073;29;20096;-75
2023/10/20 09:30:10;;;;;;;378.63;358.33;;;6.80;99.90;;;;;;4885736;29;20097;-75
2023/10/20 09:32:37;;;;;;;342.33;325.48;;;6.80;99.90;;;;;;4883660;29;20041;-75
2023/10/20 09:35:04;;;;;;;369.35;348.38;;;6.80;99.90;;;;;;4890658;29;20047;-75
2023/10/20 09:37:30;;;;;;;422.50;392.75;;;6.80;99.90;;;;;;4877192;29;20041;-75
2023/10/20 09:40:07;;;;;;;242.30;231.60;;;6.80;99.90;;;;;;4877820;29;20442;-75
2023/10/20 09:42:54;;;;;;;260.83;249.27;;;6.70;99.90;;;;;;4884514;29;20084;-75
2023/10/20 09:45:25;;;;;;;267.95;256.20;;;6.70;99.90;;;;;;4892570;29;20055;-74
2023/10/20 09:47:56;;;;;;;317.38;302.60;;;6.70;99.90;;;;;;4895452;29;20045;-74
2023/10/20 09:50:23;;;;;;;390.92;357.83;;;6.70;99.90;;;;;;4877755;29;20059;-75
2023/10/20 09:52:50;;;;;;;437.52;408.75;;;6.70;99.90;;;;;;4880028;29;20064;-75
2023/10/20 09:55:19;;;;;;;582.40;531.35;;;6.70;99.90;;;;;;4892041;29;20063;-75
2023/10/20 09:57:47;;;;;;;264.88;253.55;;;6.70;99.90;;;;;;4889066;29;20076;-74
2023/10/20 10:00:13;;;;;;;418.38;393.88;;;6.70;99.90;;;;;;4890877;29;20072;-75
2023/10/20 10:02:38;;;;;;;438.98;411.63;;;6.70;99.90;;;;;;4906195;29;20416;-74
2023/10/20 10:05:09;;;;;;;338.40;321.53;;;6.70;99.90;;;;;;4870780;29;20044;-75
2023/10/20 10:07:35;;;;;;;293.08;279.88;;;6.70;99.90;;;;;;4878549;29;20113;-74
2023/10/20 10:10:02;;;;;;;371.42;351.23;;;6.70;99.90;;;;;;4893559;29;20044;-75
2023/10/20 10:12:29;;;;;;;329.90;315.38;;;6.70;99.90;;;;;;4893102;29;20688;-75
2023/10/20 10:15:12;;;;;;;384.20;363.48;;;6.70;99.90;;;;;;4884875;29;20044;-75
2023/10/20 10:17:49;;;;;;;330.15;314.52;;;6.60;99.90;;;;;;4888290;29;20043;-76
2023/10/20 10:20:26;;;;;;;319.98;305.50;;;6.60;99.90;;;;;;4892285;29;20165;-76
2023/10/20 10:23:14;;;;;;;407.50;386.83;;;6.60;99.90;;;;;;4890043;29;20044;-76
2023/10/20 10:25:47;;;;;;;410.10;386.85;;;6.50;99.90;;;;;;4897505;29;20063;-76
2023/10/20 10:28:15;;;;;;;411.65;387.95;;;6.50;99.90;;;;;;4896305;29;20041;-76
2023/10/20 10:30:41;;;;;;;426.20;404.88;;;6.50;99.90;;;;;;4891390;29;20052;-76
2023/10/20 10:33:10;;;;;;;331.35;316.77;;;6.50;99.90;;;;;;4898248;29;20044;-76
2023/10/20 10:35:40;;;;;;;440.17;417.02;;;6.50;99.90;;;;;;4892453;29;20075;-76
2023/10/20 10:38:28;;;;;;;435.08;412.00;;;6.50;99.90;;;;;;4892849;29;20036;-76
2023/10/20 10:40:55;;;;;;;357.55;340.50;;;6.50;99.90;;;;;;4891952;29;20103;-76
2023/10/20 10:43:21;;;;;;;372.88;353.33;;;6.50;99.90;;;;;;4887374;29;20052;-77
2023/10/20 10:45:53;;;;;;;725.22;660.45;;;6.50;99.90;;;;;;4899895;29;20646;-77
2023/10/20 10:48:24;;;;;;;416.70;395.77;;;6.50;99.90;;;;;;4900252;29;20087;-76
2023/10/20 10:50:51;;;;;;;444.85;421.58;;;6.50;99.90;;;;;;4891048;29;20052;-76
2023/10/20 10:53:16;;;;;;;548.53;511.15;;;6.50;99.90;;;;;;4889562;29;20158;-75
2023/10/20 10:55:45;;;;;;;323.10;308.92;;;6.50;99.90;;;;;;4897474;29;20652;-76
2023/10/20 10:58:12;;;;;;;357.83;342.27;;;6.40;99.90;;;;;;4893287;29;20041;-76
2023/10/20 11:00:40;;;;;;;384.25;365.38;;;6.40;99.90;;;;;;4901466;29;20095;-77
2023/10/20 11:03:07;;;;;;;549.72;480.10;;;6.50;99.90;;;;;;4883342;29;20246;-77
2023/10/20 11:05:33;;;;;;;416.58;396.27;;;6.50;99.90;;;;;;4899521;29;20045;-77
2023/10/20 11:08:01;;;;;;;485.55;450.98;;;6.50;99.90;;;;;;4882636;29;20048;-77
2023/10/20 11:10:28;;;;;;;497.65;462.75;;;6.40;99.90;;;;;;4880868;29;20044;-76
2023/10/20 11:12:58;;;;;;;295.50;282.98;;;6.40;99.90;;;;;;4898846;29;20040;-78
2023/10/20 11:15:31;;;;;;;394.92;375.05;;;6.40;99.90;;;;;;4896138;29;20044;-77
2023/10/20 11:18:00;;;;;;;336.58;320.83;;;6.40;99.90;;;;;;4899383;29;20041;-77
2023/10/20 11:20:26;;;;;;;313.90;298.48;;;6.40;99.90;;;;;;4893068;29;20037;-78
2023/10/20 11:22:56;;;;;;;239.90;229.65;;;6.40;99.90;;;;;;4888655;29;20036;-77
2023/10/20 11:25:23;;;;;;;472.75;438.13;;;6.40;99.90;;;;;;4903175;29;20043;-75
2023/10/20 11:27:54;;;;;;;450.40;421.95;;;6.40;99.90;;;;;;4889638;29;20033;-76
2023/10/20 11:30:38;;;;;;;490.63;456.50;;;6.40;99.90;;;;;;4898946;29;20057;-76
2023/10/20 11:33:04;;;;;;;341.83;323.33;;;6.40;99.90;;;;;;4885210;29;20072;-77
2023/10/20 11:35:30;;;;;;;508.02;472.70;;;6.30;99.90;;;;;;4888230;29;20052;-76
2023/10/20 11:38:00;;;;;;;431.70;405.38;;;6.30;99.90;;;;;;4899715;29;20045;-76
2023/10/20 11:40:26;;;;;;;389.67;360.00;;;6.30;99.90;;;;;;4898359;29;20094;-77
2023/10/20 11:42:54;;;;;;;386.08;362.88;;;6.20;99.90;;;;;;4897868;29;20076;-77
2023/10/20 11:45:22;;;;;;;371.38;351.17;;;6.30;99.90;;;;;;4901514;29;20036;-77
2023/10/20 11:47:48;;;;;;;461.02;424.55;;;6.30;99.90;;;;;;4889030;29;20040;-77
2023/10/20 11:50:15;;;;;;;429.07;402.07;;;6.20;99.90;;;;;;4881299;29;20555;-76
2023/10/20 11:52:42;;;;;;;446.45;422.45;;;6.20;99.90;;;;;;4890641;29;20107;-77
2023/10/20 11:55:10;;;;;;;462.48;429.38;;;6.20;99.90;;;;;;4866839;29;20116;-77
2023/10/20 11:57:39;;;;;;;501.73;470.17;;;6.30;99.90;;;;;;4883942;29;20576;-77
2023/10/20 12:00:09;;;;;;;573.97;528.58;;;6.30;99.90;;;;;;4888820;29;20051;-77
2023/10/20 12:02:40;;;;;;;521.30;486.15;;;6.30;99.90;;;;;;4903465;29;20059;-77
2023/10/20 12:05:08;;;;;;;421.08;398.67;;;6.30;99.90;;;;;;4869990;29;20072;-78
2023/10/20 12:07:34;;;;;;;599.85;560.83;;;6.30;99.90;;;;;;4899519;29;20272;-77
2023/10/20 12:10:00;;;;;;;424.30;403.60;;;6.30;99.90;;;;;;4862820;29;20044;-76
2023/10/20 12:12:26;;;;;;;341.00;325.40;;;6.20;99.90;;;;;;4896849;29;20139;-77
2023/10/20 12:14:52;;;;;;;494.67;450.93;;;6.20;99.90;;;;;;4893027;29;20040;-77
2023/10/20 12:17:18;;;;;;;521.03;481.67;;;6.30;99.90;;;;;;4878762;29;20041;-76
2023/10/20 12:19:43;;;;;;;392.83;370.20;;;6.20;99.90;;;;;;4881019;29;20033;-76
2023/10/20 12:22:09;;;;;;;443.77;409.30;;;6.20;99.90;;;;;;4898061;29;20040;-77
2023/10/20 12:24:35;;;;;;;310.47;296.33;;;6.20;99.90;;;;;;4888225;29;20100;-76
2023/10/20 12:27:01;;;;;;;472.25;445.95;;;6.20;99.90;;;;;;4887583;29;20043;-76
2023/10/20 12:29:28;;;;;;;614.00;572.78;;;6.10;99.90;;;;;;4907553;29;20051;-76
2023/10/20 12:31:54;;;;;;;576.95;515.65;;;6.10;99.90;;;;;;4887824;29;20752;-77
2023/10/20 12:34:20;;;;;;;402.87;380.83;;;6.20;99.90;;;;;;4883477;29;20115;-76
2023/10/20 12:36:48;;;;;;;305.93;291.83;;;6.10;99.90;;;;;;4871565;29;20036;-76
2023/10/20 12:39:20;;;;;;;321.08;307.45;;;6.10;99.90;;;;;;4886619;29;20036;-76
2023/10/20 12:41:47;;;;;;;339.83;323.95;;;6.10;99.90;;;;;;4893712;29;20049;-76
2023/10/20 12:44:13;;;;;;;295.38;281.70;;;6.10;99.90;;;;;;4902244;29;20501;-76
2023/10/20 12:46:40;;;;;;;441.08;413.42;;;6.20;99.90;;;;;;4881826;29;20139;-76
2023/10/20 12:49:08;;;;;;;732.15;664.38;;;6.10;99.90;;;;;;4889424;29;20040;-75
2023/10/20 12:51:35;;;;;;;270.10;258.35;;;6.10;99.90;;;;;;4906155;29;20071;-76